createdAt,value
2022-11-05T00:05:12.523Z,53.32
2022-11-05T00:10:19.575Z,53.45
2022-11-05T00:15:39.821Z,53.62
2022-11-05T00:20:41.418Z,53.48
2022-11-05T00:25:42.932Z,53.39
2022-11-05T00:30:44.456Z,53.54
2022-11-05T00:35:46.007Z,53.41
2022-11-05T00:40:47.622Z,53.73
2022-11-05T00:45:49.242Z,53.75
2022-11-05T00:50:50.834Z,53.65
2022-11-05T00:55:52.463Z,53.63
2022-11-05T01:00:56.563Z,53.64
2022-11-05T01:06:09.233Z,53.91
2022-11-05T01:11:33.244Z,53.69
2022-11-05T01:16:35.369Z,54.03
2022-11-05T01:21:36.988Z,54.14
2022-11-05T01:26:38.505Z,53.86
2022-11-05T01:31:40.015Z,54.31
2022-11-05T01:36:41.538Z,53.97
2022-11-05T01:41:43.079Z,54.40
2022-11-05T01:46:46.518Z,54.35
2022-11-05T01:51:48.902Z,54.30
2022-11-05T01:56:55.120Z,54.18
2022-11-05T02:01:56.870Z,53.97
2022-11-05T02:06:59.450Z,54.25
2022-11-05T02:12:01.192Z,54.35
2022-11-05T02:17:17.877Z,54.53
2022-11-05T02:22:31.264Z,54.77
2022-11-05T02:27:54.645Z,54.35
2022-11-05T02:33:34.669Z,54.61
2022-11-05T02:38:41.197Z,54.41
2022-11-05T02:44:17.342Z,54.43
2022-11-05T02:49:51.519Z,54.61
2022-11-05T02:54:56.851Z,55.03
2022-11-05T03:00:05.464Z,54.94
2022-11-05T03:05:07.051Z,55.05
2022-11-05T03:10:18.482Z,54.92
2022-11-05T03:15:41.917Z,55.22
2022-11-05T03:20:58.878Z,55.29
2022-11-05T03:26:24.798Z,54.88
2022-11-05T03:31:28.929Z,55.71
2022-11-05T03:36:41.131Z,55.75
2022-11-05T03:41:46.548Z,55.44
2022-11-05T03:46:49.630Z,55.30
2022-11-05T03:51:58.822Z,55.48
2022-11-05T03:57:25.017Z,55.62
2022-11-05T04:02:27.217Z,55.73
2022-11-05T04:07:47.622Z,55.59
2022-11-05T04:13:08.089Z,55.75
2022-11-05T04:18:09.718Z,55.80
2022-11-05T04:23:30.353Z,55.66
2022-11-05T04:28:51.802Z,55.81
2022-11-05T04:33:53.298Z,55.53
2022-11-05T04:38:54.808Z,55.33
2022-11-05T04:43:56.322Z,55.33
2022-11-05T04:48:57.848Z,55.70
2022-11-05T04:53:59.408Z,55.53
2022-11-05T04:59:00.879Z,55.84
2022-11-05T05:04:02.380Z,55.53
2022-11-05T05:09:03.968Z,55.89
2022-11-05T05:14:05.489Z,55.66
2022-11-05T05:19:06.988Z,55.83
2022-11-05T05:24:10.036Z,55.79
2022-11-05T05:29:12.017Z,55.89
2022-11-05T05:34:14.732Z,55.68
2022-11-05T05:39:16.274Z,56.06
2022-11-05T05:44:17.786Z,55.95
2022-11-05T05:49:19.277Z,56.02
2022-11-05T05:54:26.309Z,56.14
2022-11-05T05:59:30.705Z,55.82
2022-11-05T06:04:32.155Z,55.84
2022-11-05T06:09:33.637Z,56.23
2022-11-05T06:14:35.113Z,55.98
2022-11-05T06:19:36.708Z,56.02
2022-11-05T06:24:38.215Z,56.18
2022-11-05T06:29:39.717Z,55.75
2022-11-05T06:34:41.198Z,55.85
2022-11-05T06:39:42.779Z,55.65
2022-11-05T06:44:44.437Z,56.07
2022-11-05T06:49:46.738Z,55.92
2022-11-05T06:54:48.237Z,56.06
2022-11-05T06:59:49.764Z,55.95
2022-11-05T07:04:51.284Z,56.07
2022-11-05T07:09:53.019Z,56.15
2022-11-05T07:14:54.525Z,56.12
2022-11-05T07:19:56.097Z,56.26
2022-11-05T07:24:57.815Z,56.15
2022-11-05T07:29:59.299Z,56.46
2022-11-05T07:35:00.815Z,56.39
2022-11-05T07:40:02.340Z,56.57
2022-11-05T07:45:04.456Z,56.66
2022-11-05T07:50:08.041Z,56.45
2022-11-05T07:55:10.895Z,56.44
2022-11-05T08:00:15.498Z,56.46
2022-11-05T08:05:17.064Z,56.14
2022-11-05T08:10:18.671Z,56.18
2022-11-05T08:15:20.876Z,56.49
2022-11-05T08:20:22.404Z,56.40
2022-11-05T08:25:24.419Z,56.13
2022-11-05T08:30:26.643Z,55.96
2022-11-05T08:35:29.276Z,56.09
2022-11-05T08:40:33.611Z,56.21
2022-11-05T08:45:38.250Z,56.20
2022-11-05T08:50:40.402Z,56.18
2022-11-05T08:55:42.014Z,56.05
2022-11-05T09:00:49.309Z,56.02
2022-11-05T09:05:50.913Z,55.76
2022-11-05T09:10:52.490Z,56.13
2022-11-05T09:15:54.059Z,55.79
2022-11-05T09:20:55.736Z,55.63
2022-11-05T09:25:57.236Z,55.85
2022-11-05T09:30:58.815Z,55.61
2022-11-05T09:36:00.691Z,55.41
2022-11-05T09:41:17.220Z,55.28
2022-11-05T09:46:28.166Z,55.04
2022-11-05T09:51:31.043Z,55.20
2022-11-05T09:56:37.164Z,55.20
2022-11-05T10:01:38.843Z,54.97
2022-11-05T10:06:48.584Z,54.96
2022-11-05T10:11:56.875Z,54.85
2022-11-05T10:17:03.931Z,54.62
2022-11-05T10:22:16.252Z,54.54
2022-11-05T10:27:35.343Z,54.74
2022-11-05T10:32:39.545Z,54.70
2022-11-05T10:37:41.375Z,54.54
2022-11-05T10:43:06.682Z,54.62
2022-11-05T10:48:43.415Z,54.55
2022-11-05T10:53:58.870Z,54.17
2022-11-05T10:59:10.916Z,54.19
2022-11-05T11:04:26.455Z,54.11
2022-11-05T11:09:33.450Z,53.98
2022-11-05T11:14:35.217Z,54.05
2022-11-05T11:19:36.815Z,54.04
2022-11-05T11:24:44.009Z,53.07
2022-11-05T11:29:50.348Z,52.67
2022-11-05T11:34:54.722Z,52.40
2022-11-05T11:40:01.510Z,52.23
2022-11-05T11:45:17.319Z,53.04
2022-11-05T11:50:31.025Z,53.06
2022-11-05T11:55:32.546Z,51.89
2022-11-05T12:00:41.651Z,51.43
2022-11-05T12:06:05.347Z,50.82
2022-11-05T12:11:34.229Z,50.89
2022-11-05T12:16:52.274Z,51.61
2022-11-05T12:22:30.204Z,51.63
2022-11-05T12:27:47.022Z,52.31
2022-11-05T12:33:13.506Z,52.39
2022-11-05T12:39:04.506Z,52.78
2022-11-05T12:44:18.362Z,53.01
2022-11-05T12:49:35.376Z,53.16
2022-11-05T12:54:52.247Z,53.01
2022-11-05T13:00:03.002Z,53.06
2022-11-05T13:05:13.763Z,52.55
2022-11-05T13:10:40.862Z,52.08
2022-11-05T13:16:24.444Z,52.59
2022-11-05T13:21:29.034Z,52.48
2022-11-05T13:26:43.385Z,52.57
2022-11-05T13:32:20.034Z,52.57
2022-11-05T13:37:45.666Z,52.55
2022-11-05T13:43:02.692Z,52.47
2022-11-05T13:48:31.752Z,52.70
2022-11-05T13:54:11.549Z,52.93
2022-11-05T13:59:28.241Z,53.12
2022-11-05T14:04:41.245Z,53.31
2022-11-05T14:09:43.927Z,53.27
2022-11-05T14:14:53.296Z,53.35
2022-11-05T14:20:06.773Z,53.30
2022-11-05T14:25:17.513Z,53.31
2022-11-05T14:30:42.645Z,53.00
2022-11-05T14:35:44.236Z,53.43
2022-11-05T14:40:46.262Z,53.30
2022-11-05T14:46:03.936Z,53.07
2022-11-05T14:51:44.114Z,53.05
2022-11-05T14:56:56.626Z,53.30
2022-11-05T15:02:03.824Z,53.13
2022-11-05T15:07:05.815Z,53.17
2022-11-05T15:12:39.533Z,53.11
2022-11-05T15:17:49.020Z,53.10
2022-11-05T15:22:59.561Z,53.03
2022-11-05T15:28:34.090Z,52.79
2022-11-05T15:33:35.574Z,52.92
2022-11-05T15:38:37.108Z,52.90
2022-11-05T15:43:47.661Z,52.92
2022-11-05T15:48:54.999Z,53.19
2022-11-05T15:54:24.327Z,53.03
2022-11-05T15:59:26.671Z,53.16
2022-11-05T16:04:31.371Z,53.25
2022-11-05T16:09:36.694Z,52.96
2022-11-05T16:14:38.915Z,53.43
2022-11-05T16:19:42.320Z,53.22
2022-11-05T16:24:44.782Z,53.56
2022-11-05T16:29:50.313Z,53.55
2022-11-05T16:34:55.118Z,53.57
2022-11-05T16:39:56.647Z,53.68
2022-11-05T16:44:58.153Z,53.68
2022-11-05T16:49:59.660Z,53.68
2022-11-05T16:55:01.156Z,53.95
2022-11-05T17:00:04.070Z,53.95
2022-11-05T17:05:16.286Z,53.88
2022-11-05T17:10:18.236Z,54.00
2022-11-05T17:15:19.703Z,54.15
2022-11-05T17:20:36.776Z,54.06
2022-11-05T17:25:43.717Z,53.99
2022-11-05T17:30:51.992Z,54.29
2022-11-05T17:35:54.938Z,54.09
2022-11-05T17:40:56.486Z,54.00
2022-11-05T17:46:04.118Z,54.29
2022-11-05T17:51:10.065Z,54.44
2022-11-05T17:56:13.512Z,54.59
2022-11-05T18:01:27.266Z,54.55
2022-11-05T18:06:28.900Z,54.35
2022-11-05T18:11:31.850Z,54.30
2022-11-05T18:16:34.456Z,53.96
2022-11-05T18:21:35.965Z,54.13
2022-11-05T18:26:37.540Z,53.77
2022-11-05T18:31:39.067Z,53.88
2022-11-05T18:36:40.627Z,53.82
2022-11-05T18:41:42.587Z,53.84
2022-11-05T18:46:57.749Z,54.02
2022-11-05T18:52:00.167Z,53.35
2022-11-05T18:57:02.259Z,53.71
2022-11-05T19:02:04.103Z,53.61
2022-11-05T19:07:07.164Z,53.43
2022-11-05T19:12:08.757Z,53.48
2022-11-05T19:17:11.211Z,53.58
2022-11-05T19:22:12.721Z,53.52
2022-11-05T19:27:14.200Z,54.03
2022-11-05T19:32:16.061Z,53.74
2022-11-05T19:37:17.563Z,53.59
2022-11-05T19:42:19.095Z,53.82
2022-11-05T19:47:20.593Z,54.39
2022-11-05T19:52:22.098Z,53.93
2022-11-05T19:57:23.627Z,54.09
2022-11-05T20:02:25.254Z,54.02
2022-11-05T20:07:27.363Z,54.34
2022-11-05T20:12:30.269Z,54.29
2022-11-05T20:17:31.790Z,54.30
2022-11-05T20:22:33.425Z,54.16
2022-11-05T20:27:35.364Z,54.02
2022-11-05T20:32:36.894Z,54.45
2022-11-05T20:37:38.378Z,54.38
2022-11-05T20:42:40.608Z,54.43
2022-11-05T20:47:43.556Z,54.39
2022-11-05T20:52:45.092Z,54.36
2022-11-05T20:57:46.717Z,54.69
2022-11-05T21:02:48.480Z,54.72
2022-11-05T21:07:50.128Z,55.07
2022-11-05T21:12:51.638Z,54.90
2022-11-05T21:17:53.133Z,55.15
2022-11-05T21:22:54.855Z,55.28
2022-11-05T21:27:56.442Z,55.18
2022-11-05T21:32:58.076Z,55.76
2022-11-05T21:38:00.340Z,55.45
2022-11-05T21:43:02.029Z,55.49
2022-11-05T21:48:03.672Z,55.57
2022-11-05T21:53:23.874Z,55.59
2022-11-05T21:58:44.094Z,55.28
2022-11-05T22:03:45.605Z,55.82
2022-11-05T22:08:47.164Z,55.24
2022-11-05T22:13:48.756Z,55.84
2022-11-05T22:18:50.308Z,55.51
2022-11-05T22:23:52.617Z,55.83
2022-11-05T22:28:55.285Z,55.75
2022-11-05T22:33:56.800Z,55.44
2022-11-05T22:38:58.581Z,55.06
2022-11-05T22:44:00.150Z,55.07
2022-11-05T22:49:01.720Z,55.24
2022-11-05T22:54:04.236Z,55.40
2022-11-05T22:59:07.565Z,55.01
2022-11-05T23:04:09.321Z,55.03
2022-11-05T23:09:41.890Z,55.24
2022-11-05T23:14:43.384Z,54.96
2022-11-05T23:20:03.375Z,55.12
2022-11-05T23:25:07.268Z,54.75
2022-11-05T23:30:18.065Z,55.12
2022-11-05T23:35:39.796Z,54.91
2022-11-05T23:41:01.255Z,54.78
2022-11-05T23:46:21.573Z,54.88
2022-11-05T23:51:23.091Z,54.86
2022-11-05T23:56:24.556Z,55.09
